Scottsbluff, NE

12:25 PM MDT on August 29, 2015 (GMT -0600)
Heilig | | Change Station
CLOSE
Current Station
Airport
Location: Scottsbluff,
Elevation: 3957 ft
Nearby Weather Stations

Elev 3957 ft 41.87 °N, 103.60 °W | Updated 32 minutes ago

Clear
Clear
83 °F
Feels Like 82 °F
N
9
Wind Variable Wind from East

Today
High -- | Low -- °F
--% Chance of Precip.
Yesterday
High -- | Low -- °F
Precip. -- in
6:16 AM 7:33 PM
Full, 100% visible
Pressure 30.01 in
Visibility 8.0 miles
Clouds Clear
Heat Index 82 °F
Dew Point 57 °F
Humidity 41%
Rainfall 0.00 in
Snow Depth Not available.
UV 9 out of 12
Pollen 10.30 out of 12
Air Quality Not available.
Flu Activity Not available.
METAR KBFF 291753Z AUTO 09008KT 8SM CLR 28/14 A3014 RMK AO2 SLP163 T02830139 10283 20111 58011
Pressure 30.01 in
Visibility 8.0 miles
Clouds Clear
Heat Index 82 °F
Dew Point 57 °F
Humidity 41%
Rainfall 0.00 in
Snow Depth Not available.
UV 9 out of 12
Pollen 10.30 out of 12
Air Quality Not available.
Flu Activity Not available.
METAR KBFF 291753Z AUTO 09008KT 8SM CLR 28/14 A3014 RMK AO2 SLP163 T02830139 10283 20111 58011

10-Day Weather Forecast

×

Almanac

Astronomy

Aug. 29, 2015 Rise Set
Actual Time
Civil Twilight
Nautical Twilight
Astronomical Twilight
Moon
Length of Visible Light
Length of Day
Tomorrow will be .
, % of the Moon is Illuminated

Today's Extremes

State Highs State Lows

Community

WunderPhotos

Upload Photos

1,850,755 photos uploaded!

WunderBlogs® & News

Nearby

Air Quality

  Air Quality AQ Index Pollutant
Not available.

Snow Depth

Station Depth Elevation

Earthquake Activity

City Distance Mag. Time & Date
Minimum magnitude displayed is 2.5.

Coastal Water Temperatures

Place Temperature

Stations

Nearby Weather Stations

Station Location Temp. Windchill Dew Point Humidity Wind Precip. Elev Updated Type